createdAt,value
2023-03-24T00:04:33.151Z,16.33
2023-03-24T00:09:40.937Z,16.34
2023-03-24T00:14:49.277Z,16.33
2023-03-24T00:19:59.605Z,16.34
2023-03-24T00:25:07.896Z,16.35
2023-03-24T00:30:16.402Z,16.32
2023-03-24T00:35:26.712Z,16.35
2023-03-24T00:40:34.432Z,16.35
2023-03-24T00:45:46.103Z,16.35
2023-03-24T00:50:56.572Z,16.39
2023-03-24T00:56:04.588Z,16.38
2023-03-24T01:01:12.302Z,16.40
2023-03-24T01:06:25.136Z,16.42
2023-03-24T01:11:40.229Z,16.41
2023-03-24T01:16:48.175Z,16.36
2023-03-24T01:21:59.699Z,16.36
2023-03-24T01:27:07.695Z,16.34
2023-03-24T01:32:15.583Z,16.31
2023-03-24T01:37:26.358Z,16.31
2023-03-24T01:42:34.083Z,16.28
2023-03-24T01:47:41.842Z,16.24
2023-03-24T01:52:52.179Z,16.25
2023-03-24T01:58:03.261Z,16.24
2023-03-24T02:03:14.923Z,16.23
2023-03-24T02:08:31.319Z,16.26
2023-03-24T02:13:39.077Z,16.24
2023-03-24T02:18:56.440Z,16.28
2023-03-24T02:24:42.920Z,16.34
2023-03-24T02:30:29.748Z,16.36
2023-03-24T02:35:54.540Z,16.33
2023-03-24T02:41:12.712Z,16.30
2023-03-24T02:46:27.166Z,16.28
2023-03-24T02:51:41.804Z,16.27
2023-03-24T02:56:58.929Z,16.30
2023-03-24T03:02:10.754Z,16.28
2023-03-24T03:07:22.633Z,16.25
2023-03-24T03:12:38.643Z,16.26
2023-03-24T03:17:54.063Z,16.22
2023-03-24T03:23:07.645Z,16.23
2023-03-24T03:28:22.173Z,16.25
2023-03-24T03:33:37.595Z,16.26
2023-03-24T03:38:53.133Z,16.28
2023-03-24T03:44:04.006Z,16.29
2023-03-24T03:49:12.460Z,16.30
2023-03-24T03:54:22.171Z,16.32
2023-03-24T03:59:36.393Z,16.37
2023-03-24T04:05:05.807Z,16.38
2023-03-24T04:10:22.587Z,16.41
2023-03-24T04:15:45.580Z,16.45
2023-03-24T04:21:06.472Z,16.41
2023-03-24T04:26:26.360Z,16.41
2023-03-24T04:31:42.130Z,16.37
2023-03-24T04:36:54.723Z,16.33
2023-03-24T04:42:07.405Z,16.32
2023-03-24T04:47:19.664Z,16.31
2023-03-24T04:52:28.112Z,16.29
2023-03-24T04:57:36.182Z,16.29
2023-03-24T05:02:46.456Z,16.31
2023-03-24T05:07:54.819Z,16.28
2023-03-24T05:13:02.408Z,16.26
2023-03-24T05:18:12.726Z,16.26
2023-03-24T05:23:20.554Z,16.22
2023-03-24T05:28:28.185Z,16.16
2023-03-24T05:33:38.544Z,16.11
2023-03-24T05:38:46.404Z,16.03
2023-03-24T05:43:54.011Z,15.97
2023-03-24T05:49:04.669Z,15.91
2023-03-24T05:54:12.342Z,15.80
2023-03-24T05:59:20.019Z,15.70
2023-03-24T06:04:31.402Z,15.63
2023-03-24T06:09:42.634Z,15.54
2023-03-24T06:14:50.110Z,15.66
2023-03-24T06:20:04.989Z,15.47
2023-03-24T06:25:13.996Z,15.38
2023-03-24T06:30:21.839Z,15.36
2023-03-24T06:35:32.882Z,15.38
2023-03-24T06:40:40.493Z,15.36
2023-03-24T06:45:48.951Z,15.37
2023-03-24T06:50:59.933Z,15.40
2023-03-24T06:56:08.656Z,15.43
2023-03-24T07:01:16.692Z,15.42
2023-03-24T07:06:26.981Z,15.41
2023-03-24T07:11:34.640Z,15.40
2023-03-24T07:16:42.333Z,15.37
2023-03-24T07:21:53.070Z,15.34
2023-03-24T07:27:00.717Z,15.26
2023-03-24T07:32:08.824Z,15.19
2023-03-24T07:37:20.936Z,15.15
2023-03-24T07:42:28.613Z,15.08
2023-03-24T07:47:37.744Z,15.06
2023-03-24T07:52:51.155Z,15.06
2023-03-24T07:57:59.477Z,15.00
2023-03-24T08:03:09.795Z,15.00
2023-03-24T08:08:20.228Z,15.02
2023-03-24T08:13:28.217Z,15.01
2023-03-24T08:18:36.032Z,14.99
2023-03-24T08:23:46.246Z,15.03
2023-03-24T08:28:53.866Z,15.05
2023-03-24T08:34:01.498Z,15.06
2023-03-24T08:39:12.878Z,15.10
2023-03-24T08:44:21.327Z,15.10
2023-03-24T08:49:28.920Z,15.12
2023-03-24T08:54:39.384Z,15.17
2023-03-24T08:59:49.485Z,15.19
2023-03-24T09:04:58.628Z,15.21
2023-03-24T09:10:11.815Z,15.26
2023-03-24T09:15:19.605Z,15.29
2023-03-24T09:20:27.448Z,15.34
2023-03-24T09:25:37.739Z,15.39
2023-03-24T09:30:45.873Z,15.43
2023-03-24T09:35:59.258Z,15.53
2023-03-24T09:41:20.210Z,15.66
2023-03-24T09:46:34.697Z,15.73
2023-03-24T09:51:47.139Z,15.82
2023-03-24T09:56:58.737Z,15.91
2023-03-24T10:02:13.441Z,16.01
2023-03-24T10:07:30.572Z,16.18
2023-03-24T10:12:43.070Z,16.32
2023-03-24T10:18:00.335Z,16.45
2023-03-24T10:23:23.113Z,16.54
2023-03-24T10:28:41.848Z,16.61
2023-03-24T10:33:49.859Z,16.70
2023-03-24T10:39:06.436Z,16.77
2023-03-24T10:44:27.304Z,16.86
2023-03-24T10:49:34.912Z,16.89
2023-03-24T10:54:57.621Z,16.98
2023-03-24T11:00:15.905Z,16.97
2023-03-24T11:05:30.073Z,17.00
2023-03-24T11:10:38.082Z,17.05
2023-03-24T11:15:56.910Z,17.17
2023-03-24T11:21:07.173Z,17.21
2023-03-24T11:26:18.476Z,17.30
2023-03-24T11:31:32.167Z,17.38
